Time;durP1;ratioP1;P1;durP2;ratioP2;P2;SDS_P1;SDS_P2;PMS_P1;PMS_P2;Temp;Humidity;BMP_temperature;BMP_pressure;BME280_temperature;BME280_humidity;BME280_pressure;Samples;Min_cycle;Max_cycle;Signal;HPM_P1;HPM_P2
2021/12/03 00:00:03;;;;;;;7.82;5.65;;;4.60;71.50;;;;;;5041287;28;20103;-73
2021/12/03 00:02:31;;;;;;;7.97;5.57;;;4.60;70.90;;;;;;5026239;28;20037;-74
2021/12/03 00:04:57;;;;;;;8.82;5.90;;;4.60;70.90;;;;;;5026623;28;20033;-73
2021/12/03 00:07:24;;;;;;;7.28;5.80;;;4.60;70.90;;;;;;5025494;28;20116;-80
2021/12/03 00:09:50;;;;;;;7.82;5.10;;;4.70;71.10;;;;;;5008283;28;20025;-73
2021/12/03 00:12:16;;;;;;;7.18;4.97;;;4.60;70.90;;;;;;5024383;28;20036;-72
2021/12/03 00:14:42;;;;;;;8.05;5.53;;;4.70;71.10;;;;;;5025644;28;20030;-74
2021/12/03 00:17:07;;;;;;;6.75;5.43;;;4.70;71.10;;;;;;5025441;28;20514;-74
2021/12/03 00:19:33;;;;;;;7.20;5.32;;;4.70;71.20;;;;;;5027049;28;20037;-72
2021/12/03 00:21:59;;;;;;;7.28;5.20;;;4.70;71.20;;;;;;5024436;28;20042;-73
2021/12/03 00:24:25;;;;;;;6.72;5.57;;;4.70;71.10;;;;;;5018831;28;20044;-73
2021/12/03 00:26:51;;;;;;;8.45;5.20;;;4.70;71.20;;;;;;5005311;28;20033;-78
2021/12/03 00:29:17;;;;;;;7.15;5.05;;;4.70;71.20;;;;;;5004755;28;20046;-73
2021/12/03 00:31:43;;;;;;;7.18;4.65;;;4.70;71.10;;;;;;5007111;28;20061;-79
2021/12/03 00:34:09;;;;;;;8.05;4.57;;;4.70;71.10;;;;;;5023290;28;20189;-86
2021/12/03 00:36:37;;;;;;;7.53;4.53;;;4.80;71.30;;;;;;5007716;28;20052;-78
2021/12/03 00:39:04;;;;;;;8.18;4.90;;;4.80;71.30;;;;;;5017795;28;20363;-88
2021/12/03 00:41:34;;;;;;;6.68;4.18;;;4.70;71.20;;;;;;5030518;28;20299;-73
2021/12/03 00:44:01;;;;;;;5.57;3.97;;;4.80;71.30;;;;;;5029126;28;20033;-73
2021/12/03 00:46:26;;;;;;;8.45;4.32;;;4.80;71.30;;;;;;5029685;28;20039;-73
2021/12/03 00:48:54;;;;;;;6.07;4.25;;;4.80;71.40;;;;;;5020295;28;20117;-78
2021/12/03 00:51:22;;;;;;;7.07;4.60;;;4.80;71.30;;;;;;5009649;28;20030;-79
2021/12/03 00:53:48;;;;;;;5.93;4.22;;;4.80;71.40;;;;;;5012079;28;20046;-73
2021/12/03 00:56:16;;;;;;;6.25;4.55;;;4.80;71.40;;;;;;5029455;28;20026;-80
2021/12/03 00:58:42;;;;;;;7.25;3.97;;;4.90;71.60;;;;;;5028282;28;20041;-73
2021/12/03 01:01:08;;;;;;;5.50;3.70;;;4.90;71.60;;;;;;5029038;28;20385;-72
2021/12/03 01:03:36;;;;;;;6.43;4.07;;;4.90;71.60;;;;;;5029765;28;20158;-72
2021/12/03 01:06:02;;;;;;;5.28;3.65;;;4.90;71.60;;;;;;5028422;28;20120;-72
2021/12/03 01:08:28;;;;;;;10.23;4.40;;;4.90;71.60;;;;;;5029059;28;20116;-72
2021/12/03 01:10:55;;;;;;;7.25;3.72;;;4.90;71.50;;;;;;5027873;28;20029;-72
2021/12/03 01:13:21;;;;;;;5.55;3.75;;;4.90;71.60;;;;;;5045599;28;20492;-76
2021/12/03 01:15:47;;;;;;;4.82;3.83;;;4.90;71.60;;;;;;5029654;28;20036;-87
2021/12/03 01:18:13;;;;;;;6.50;3.30;;;5.00;71.70;;;;;;5028660;28;20642;-83
2021/12/03 01:20:42;;;;;;;4.88;3.20;;;5.00;71.70;;;;;;5027757;28;20037;-81
2021/12/03 01:23:11;;;;;;;4.28;3.00;;;5.00;71.70;;;;;;5029482;28;20385;-83
2021/12/03 01:25:39;;;;;;;6.85;3.42;;;5.00;71.70;;;;;;5044265;28;20044;-86
2021/12/03 01:28:06;;;;;;;6.07;3.70;;;5.00;71.70;;;;;;5013674;28;20029;-84
2021/12/03 01:30:33;;;;;;;4.25;3.33;;;5.00;71.70;;;;;;5027950;28;20026;-88
2021/12/03 01:33:01;;;;;;;4.80;3.28;;;5.00;71.70;;;;;;5028332;28;20050;-77
2021/12/03 01:35:28;;;;;;;5.53;3.30;;;5.00;71.70;;;;;;5014433;28;20030;-73
2021/12/03 01:37:55;;;;;;;3.83;3.08;;;5.00;71.70;;;;;;5009147;28;20033;-75
2021/12/03 01:40:25;;;;;;;4.13;2.88;;;5.10;71.90;;;;;;5009198;28;20561;-73
2021/12/03 01:42:51;;;;;;;8.40;3.60;;;5.10;71.90;;;;;;5007673;28;20500;-72
2021/12/03 01:45:29;;;;;;;5.82;3.40;;;5.10;71.90;;;;;;5023085;28;20029;-72
2021/12/03 01:47:57;;;;;;;3.75;2.92;;;5.10;72.00;;;;;;5008629;28;20037;-72
2021/12/03 01:50:26;;;;;;;5.90;3.88;;;5.10;71.90;;;;;;5008520;28;20042;-73
2021/12/03 01:52:52;;;;;;;3.47;3.17;;;5.10;71.90;;;;;;5006627;28;20056;-73
2021/12/03 01:55:19;;;;;;;3.38;2.58;;;5.20;72.10;;;;;;5020652;28;20040;-72
2021/12/03 01:57:45;;;;;;;3.75;3.03;;;5.20;72.10;;;;;;5028026;28;20042;-72
2021/12/03 02:00:20;;;;;;;5.53;2.65;;;5.20;72.10;;;;;;5009969;28;20055;-71
2021/12/03 02:02:47;;;;;;;5.65;3.72;;;5.20;72.20;;;;;;5026725;28;20038;-75
2021/12/03 02:05:14;;;;;;;3.30;3.00;;;5.20;72.70;;;;;;5027628;28;20029;-72
2021/12/03 02:07:40;;;;;;;2.80;2.50;;;5.20;72.10;;;;;;5028558;28;20477;-73
2021/12/03 02:10:08;;;;;;;4.00;2.60;;;5.20;72.10;;;;;;5043431;28;20025;-72
2021/12/03 02:12:34;;;;;;;4.57;3.25;;;5.30;72.30;;;;;;5016862;28;20496;-75
2021/12/03 02:15:00;;;;;;;3.95;2.70;;;5.30;72.30;;;;;;5023109;28;20112;-74
2021/12/03 02:17:26;;;;;;;3.50;2.67;;;5.20;72.50;;;;;;5027378;28;20037;-72
2021/12/03 02:19:52;;;;;;;3.33;2.08;;;5.30;72.30;;;;;;5027996;28;20042;-72
2021/12/03 02:22:18;;;;;;;4.18;2.60;;;5.30;72.30;;;;;;5027618;28;20507;-75
2021/12/03 02:24:45;;;;;;;3.13;2.20;;;5.30;72.30;;;;;;5018527;28;20033;-72
2021/12/03 02:27:10;;;;;;;4.57;2.13;;;5.30;72.30;;;;;;5006384;28;20451;-72
2021/12/03 02:29:36;;;;;;;4.63;3.60;;;5.30;72.30;;;;;;5020215;28;20124;-72
2021/12/03 02:32:03;;;;;;;4.55;2.30;;;5.30;72.30;;;;;;5020711;28;20041;-72
2021/12/03 02:34:30;;;;;;;3.67;2.15;;;5.40;72.50;;;;;;5013970;28;20049;-72
2021/12/03 02:36:57;;;;;;;3.10;1.90;;;5.40;72.50;;;;;;5009672;28;20528;-72
2021/12/03 02:39:23;;;;;;;4.20;2.30;;;5.40;72.50;;;;;;5009175;28;20052;-72
2021/12/03 02:41:49;;;;;;;4.53;2.00;;;5.40;72.50;;;;;;5008995;28;20051;-72
2021/12/03 02:44:15;;;;;;;3.67;2.28;;;5.50;72.70;;;;;;5009255;28;20549;-72
2021/12/03 02:46:41;;;;;;;4.55;2.13;;;5.40;72.50;;;;;;5023415;28;20033;-73
2021/12/03 02:49:09;;;;;;;3.80;2.38;;;5.40;72.50;;;;;;5031969;28;20072;-72
2021/12/03 02:51:35;;;;;;;2.92;2.00;;;5.50;72.70;;;;;;5032578;28;20389;-82
2021/12/03 02:54:01;;;;;;;3.08;2.13;;;5.50;72.70;;;;;;5032088;28;20042;-73
2021/12/03 02:56:27;;;;;;;4.35;2.35;;;5.50;72.70;;;;;;5031993;28;20033;-76
2021/12/03 02:58:53;;;;;;;3.67;1.90;;;5.60;72.90;;;;;;5032216;28;20042;-73
2021/12/03 03:01:19;;;;;;;2.40;2.03;;;5.60;72.90;;;;;;5030322;28;20026;-72
2021/12/03 03:03:45;;;;;;;3.15;1.90;;;5.60;72.80;;;;;;5031656;28;20026;-72
2021/12/03 03:06:11;;;;;;;2.13;1.70;;;5.60;72.80;;;;;;5030669;28;20469;-72
2021/12/03 03:08:40;;;;;;;2.83;1.73;;;5.70;73.00;;;;;;5032054;28;20026;-72
2021/12/03 03:11:07;;;;;;;2.05;1.73;;;5.70;73.00;;;;;;5031513;28;20029;-72
2021/12/03 03:13:34;;;;;;;2.10;1.58;;;5.70;73.00;;;;;;5030601;28;20359;-75
2021/12/03 03:16:00;;;;;;;2.72;1.73;;;5.70;73.00;;;;;;5029908;28;20075;-72
2021/12/03 03:18:27;;;;;;;2.42;1.70;;;5.70;73.00;;;;;;5030554;28;20120;-79
2021/12/03 03:20:55;;;;;;;3.53;1.77;;;5.80;73.10;;;;;;5031684;28;20043;-75
2021/12/03 03:23:22;;;;;;;3.03;1.63;;;5.80;73.10;;;;;;5031555;28;20032;-72
2021/12/03 03:25:49;;;;;;;2.20;1.73;;;5.80;73.10;;;;;;5030085;28;20095;-74
2021/12/03 03:28:18;;;;;;;3.88;1.70;;;5.80;73.10;;;;;;5031584;28;20064;-72
2021/12/03 03:30:47;;;;;;;2.25;1.88;;;5.80;73.10;;;;;;5029797;28;20076;-72
2021/12/03 03:33:18;;;;;;;2.95;1.38;;;5.90;73.30;;;;;;5030319;28;20033;-73
2021/12/03 03:35:44;;;;;;;1.98;1.60;;;5.90;73.30;;;;;;5031822;28;20033;-74
2021/12/03 03:38:11;;;;;;;2.05;1.38;;;5.90;73.20;;;;;;5030350;28;20116;-72
2021/12/03 03:40:38;;;;;;;2.95;1.55;;;5.90;73.20;;;;;;5031797;28;20119;-80
2021/12/03 03:43:06;;;;;;;2.15;1.20;;;5.90;73.20;;;;;;5029951;28;20049;-72
2021/12/03 03:45:33;;;;;;;1.48;1.20;;;6.00;73.40;;;;;;5031256;28;20095;-75
2021/12/03 03:47:59;;;;;;;3.20;1.67;;;6.00;73.40;;;;;;5031150;28;20112;-73
2021/12/03 03:50:27;;;;;;;2.38;1.83;;;6.00;73.40;;;;;;5031461;28;20473;-72
2021/12/03 03:52:54;;;;;;;2.65;1.25;;;6.00;73.40;;;;;;5031248;28;20061;-76
2021/12/03 03:55:22;;;;;;;2.72;1.48;;;6.10;73.60;;;;;;5031265;28;20512;-75
2021/12/03 03:57:50;;;;;;;3.65;1.30;;;6.10;73.50;;;;;;5031255;28;20036;-73
2021/12/03 04:00:20;;;;;;;1.50;1.20;;;6.10;73.50;;;;;;5031044;28;20100;-72
2021/12/03 04:02:46;;;;;;;1.60;1.00;;;6.10;73.50;;;;;;5030857;28;20030;-72
2021/12/03 04:05:13;;;;;;;3.25;1.42;;;6.20;73.60;;;;;;5025707;28;20440;-78
2021/12/03 04:07:39;;;;;;;4.10;1.10;;;6.20;73.60;;;;;;5031969;28;20471;-88
2021/12/03 04:10:07;;;;;;;1.33;1.23;;;6.20;73.60;;;;;;5047530;28;20034;-85
2021/12/03 04:12:34;;;;;;;3.35;0.98;;;6.20;73.60;;;;;;5031896;28;20034;-74
2021/12/03 04:15:00;;;;;;;1.60;1.02;;;6.30;73.80;;;;;;5046654;28;20025;-79
2021/12/03 04:17:27;;;;;;;1.58;1.25;;;6.30;73.80;;;;;;5046296;28;20448;-76
2021/12/03 04:19:53;;;;;;;1.10;0.98;;;6.30;73.70;;;;;;5030797;28;20046;-83
2021/12/03 04:22:23;;;;;;;1.55;1.30;;;6.30;73.70;;;;;;5031081;28;20484;-80
2021/12/03 04:24:51;;;;;;;1.15;1.05;;;6.30;73.70;;;;;;5029632;28;20401;-87
2021/12/03 04:27:18;;;;;;;1.65;1.10;;;6.30;73.70;;;;;;5023140;28;20137;-81
2021/12/03 04:29:44;;;;;;;1.13;0.77;;;6.40;73.80;;;;;;5011260;28;20030;-72
2021/12/03 04:32:12;;;;;;;1.25;1.02;;;6.40;73.80;;;;;;5020787;28;20264;-72
2021/12/03 04:34:38;;;;;;;1.10;1.00;;;6.40;73.80;;;;;;5029419;28;20030;-77
2021/12/03 04:37:04;;;;;;;2.17;0.90;;;6.40;73.80;;;;;;5030563;28;20124;-72
2021/12/03 04:39:31;;;;;;;2.20;1.40;;;6.50;73.90;;;;;;5030666;28;20037;-72
2021/12/03 04:41:57;;;;;;;2.72;0.80;;;6.50;73.90;;;;;;5029218;28;20048;-73
2021/12/03 04:44:23;;;;;;;2.33;0.98;;;6.50;73.90;;;;;;5030714;28;20026;-78
2021/12/03 04:46:49;;;;;;;2.10;1.17;;;6.50;73.90;;;;;;5030066;28;20030;-72
2021/12/03 04:49:15;;;;;;;1.05;0.90;;;6.60;74.10;;;;;;5029533;28;20124;-86
2021/12/03 04:51:41;;;;;;;1.95;1.02;;;6.60;74.10;;;;;;5030887;28;20108;-72
2021/12/03 04:54:07;;;;;;;1.35;0.90;;;6.60;74.10;;;;;;5031010;28;20056;-72
2021/12/03 04:56:33;;;;;;;1.38;0.88;;;6.70;74.20;;;;;;5029324;28;20362;-73
2021/12/03 04:58:59;;;;;;;0.68;0.68;;;6.70;74.20;;;;;;5029280;28;20040;-74
2021/12/03 05:01:25;;;;;;;1.10;0.82;;;6.70;74.20;;;;;;5030815;28;20495;-80
2021/12/03 05:03:51;;;;;;;0.93;0.60;;;6.70;74.10;;;;;;5031292;28;20483;-85
2021/12/03 05:06:28;;;;;;;0.88;0.80;;;6.70;74.10;;;;;;5030866;28;20025;-74
2021/12/03 05:08:55;;;;;;;0.60;0.55;;;6.80;74.20;;;;;;5030999;28;20032;-74
2021/12/03 05:11:21;;;;;;;1.23;0.80;;;6.80;74.20;;;;;;5029262;28;20508;-73
2021/12/03 05:13:47;;;;;;;0.77;0.73;;;6.90;74.40;;;;;;5030335;28;20022;-72
2021/12/03 05:16:13;;;;;;;1.00;0.80;;;6.90;74.40;;;;;;5030113;28;20029;-73
2021/12/03 05:18:42;;;;;;;1.33;0.70;;;6.90;74.40;;;;;;5030822;28;20424;-81
2021/12/03 05:21:07;;;;;;;0.70;0.70;;;6.90;74.30;;;;;;5030496;28;20065;-77
2021/12/03 05:23:33;;;;;;;1.13;0.70;;;6.90;74.30;;;;;;5029677;28;20428;-72
2021/12/03 05:26:00;;;;;;;1.23;0.80;;;6.90;74.30;;;;;;5030798;28;20033;-71
2021/12/03 05:28:27;;;;;;;0.50;0.40;;;7.00;74.50;;;;;;5033427;28;20033;-73
2021/12/03 05:30:53;;;;;;;1.52;0.70;;;7.00;74.40;;;;;;5033827;28;20025;-72
2021/12/03 05:33:20;;;;;;;0.68;0.60;;;7.00;74.40;;;;;;5048825;28;20030;-72
2021/12/03 05:35:47;;;;;;;2.38;0.80;;;7.10;74.60;;;;;;5033649;28;20060;-76
2021/12/03 05:38:13;;;;;;;0.75;0.60;;;7.10;74.60;;;;;;5032391;28;20481;-76
2021/12/03 05:40:39;;;;;;;0.50;0.50;;;7.10;74.60;;;;;;5033868;28;20045;-72
2021/12/03 05:43:05;;;;;;;1.00;0.60;;;7.10;74.60;;;;;;5033245;28;20026;-73
2021/12/03 05:45:33;;;;;;;1.00;0.60;;;7.20;74.70;;;;;;5033683;28;20385;-83
2021/12/03 05:48:00;;;;;;;0.73;0.68;;;7.20;74.70;;;;;;5026795;28;20060;-76
2021/12/03 05:50:27;;;;;;;0.73;0.50;;;7.20;74.70;;;;;;5010492;28;20037;-72
2021/12/03 05:52:54;;;;;;;0.60;0.60;;;7.20;74.70;;;;;;5026345;28;20397;-72
2021/12/03 05:55:21;;;;;;;0.50;0.50;;;7.30;74.80;;;;;;5010204;28;20137;-72
2021/12/03 05:57:47;;;;;;;1.02;0.60;;;7.30;74.80;;;;;;5009752;28;20034;-77
2021/12/03 06:00:17;;;;;;;1.13;0.65;;;7.30;74.80;;;;;;5010636;28;20045;-79
2021/12/03 06:02:44;;;;;;;0.35;0.30;;;7.30;74.80;;;;;;5013311;28;20033;-74
2021/12/03 06:05:11;;;;;;;1.90;0.40;;;7.30;74.80;;;;;;5028554;28;20041;-72
2021/12/03 06:07:37;;;;;;;0.63;0.40;;;7.40;75.00;;;;;;5026384;28;20064;-77
2021/12/03 06:10:04;;;;;;;1.60;0.70;;;7.40;74.90;;;;;;5024934;28;20026;-80
2021/12/03 06:12:30;;;;;;;0.47;0.40;;;7.40;74.90;;;;;;5038108;28;20041;-76
2021/12/03 06:14:56;;;;;;;1.15;0.70;;;7.40;74.90;;;;;;5026801;28;20029;-74
2021/12/03 06:17:22;;;;;;;0.38;0.32;;;7.40;74.90;;;;;;5007664;28;20061;-82
2021/12/03 06:19:48;;;;;;;0.85;0.30;;;7.40;74.90;;;;;;5022135;28;20068;-74
2021/12/03 06:22:14;;;;;;;0.55;0.30;;;7.50;75.10;;;;;;5024042;28;20548;-75
2021/12/03 06:24:41;;;;;;;0.60;0.52;;;7.50;75.10;;;;;;5025134;28;20037;-73
2021/12/03 06:27:07;;;;;;;0.50;0.30;;;7.50;75.10;;;;;;5028061;28;20029;-75
2021/12/03 06:29:33;;;;;;;0.70;0.60;;;7.60;75.20;;;;;;5011501;28;20069;-80
2021/12/03 06:31:59;;;;;;;1.75;0.60;;;7.60;75.20;;;;;;5035537;28;20042;-72
2021/12/03 06:34:25;;;;;;;0.73;0.50;;;7.60;75.20;;;;;;5016491;28;20516;-86
2021/12/03 06:36:51;;;;;;;1.38;0.80;;;7.60;75.30;;;;;;5023007;28;20487;-89
2021/12/03 06:39:17;;;;;;;0.50;0.50;;;7.70;75.50;;;;;;5024265;28;20033;-93
2021/12/03 06:41:43;;;;;;;0.60;0.60;;;7.70;75.60;;;;;;5013108;28;20103;-88
2021/12/03 06:44:09;;;;;;;1.48;0.50;;;7.70;75.60;;;;;;5020088;28;20033;-92
2021/12/03 06:46:36;;;;;;;1.02;0.40;;;7.80;75.80;;;;;;5006598;28;20101;-72
2021/12/03 06:49:03;;;;;;;0.65;0.40;;;7.80;75.80;;;;;;5016143;28;20112;-74
2021/12/03 06:51:30;;;;;;;0.85;0.52;;;7.80;75.80;;;;;;5013600;28;20033;-74
2021/12/03 06:54:01;;;;;;;1.20;0.50;;;7.90;76.00;;;;;;5016696;28;20545;-78
2021/12/03 06:57:11;;;;;;;1.30;0.50;;;7.90;76.00;;;;;;5027354;28;20094;-78
2021/12/03 06:59:19;;;;;;;1.88;0.60;;;7.90;75.90;;;;;;5007627;28;20136;-85
2021/12/03 07:01:45;;;;;;;0.73;0.52;;;7.90;75.90;;;;;;5044581;28;20502;-74
2021/12/03 07:04:12;;;;;;;1.15;0.55;;;7.90;75.90;;;;;;5012172;28;20398;-83
2021/12/03 07:06:38;;;;;;;0.47;0.32;;;7.90;75.90;;;;;;5005542;28;20064;-74
2021/12/03 07:09:05;;;;;;;1.10;0.60;;;8.00;76.20;;;;;;5021931;28;20029;-82
2021/12/03 07:11:32;;;;;;;0.90;0.77;;;8.00;76.20;;;;;;5012335;28;20089;-84
2021/12/03 07:13:58;;;;;;;0.90;0.47;;;8.00;76.20;;;;;;5008086;28;20036;-83
2021/12/03 07:16:24;;;;;;;1.00;0.93;;;8.00;76.20;;;;;;5008054;28;20057;-83
2021/12/03 07:18:51;;;;;;;0.73;0.70;;;8.00;76.20;;;;;;5007185;28;20156;-75
2021/12/03 07:21:17;;;;;;;1.90;1.27;;;8.00;76.20;;;;;;5011890;28;20043;-73
2021/12/03 07:23:43;;;;;;;1.38;1.17;;;8.10;76.50;;;;;;5006956;28;20030;-75
2021/12/03 07:26:09;;;;;;;2.65;1.55;;;8.00;76.40;;;;;;5018745;28;20026;-77
2021/12/03 07:28:36;;;;;;;2.30;1.50;;;8.10;76.60;;;;;;5011108;28;20677;-74
2021/12/03 07:31:02;;;;;;;2.88;1.70;;;8.10;76.70;;;;;;5022899;28;20045;-76
2021/12/03 07:33:31;;;;;;;6.45;2.00;;;8.10;76.80;;;;;;5009087;28;20034;-77
2021/12/03 07:35:57;;;;;;;3.92;1.73;;;8.20;77.00;;;;;;5013784;28;20108;-79
2021/12/03 07:38:23;;;;;;;4.88;1.77;;;8.20;77.10;;;;;;5015809;28;20436;-79
2021/12/03 07:40:50;;;;;;;3.67;2.22;;;8.20;77.10;;;;;;5005019;28;20042;-74
2021/12/03 07:43:17;;;;;;;3.92;2.15;;;8.20;77.10;;;;;;5017880;28;20107;-80
2021/12/03 07:45:45;;;;;;;4.07;2.40;;;8.20;77.10;;;;;;5022813;28;20405;-74
2021/12/03 07:48:12;;;;;;;5.28;3.05;;;8.20;77.10;;;;;;5016210;28;20026;-74
2021/12/03 07:50:39;;;;;;;4.25;3.00;;;8.30;77.30;;;;;;5005148;28;20026;-77
2021/12/03 07:53:07;;;;;;;4.03;2.90;;;8.30;77.30;;;;;;5020423;28;20073;-78
2021/12/03 07:55:33;;;;;;;4.97;3.55;;;8.30;77.30;;;;;;5006793;28;20627;-81
2021/12/03 07:58:00;;;;;;;4.70;4.10;;;8.30;77.30;;;;;;5005041;28;20391;-74
2021/12/03 08:00:26;;;;;;;4.47;3.85;;;8.30;77.30;;;;;;5005075;28;20049;-83
2021/12/03 08:02:52;;;;;;;4.80;4.03;;;8.30;77.30;;;;;;5006311;28;20033;-76
2021/12/03 08:05:18;;;;;;;4.65;3.63;;;8.30;77.20;;;;;;5006749;28;20029;-79
2021/12/03 08:07:49;;;;;;;5.60;4.20;;;8.30;77.20;;;;;;5005192;28;20429;-80
2021/12/03 08:10:15;;;;;;;6.40;4.90;;;8.30;77.20;;;;;;5007294;28;20080;-78
2021/12/03 08:12:45;;;;;;;6.93;4.93;;;8.30;77.20;;;;;;5006992;28;20026;-79
2021/12/03 08:15:12;;;;;;;5.93;4.70;;;8.30;77.20;;;;;;5004977;28;20363;-76
2021/12/03 08:17:38;;;;;;;5.80;5.20;;;8.30;77.20;;;;;;5005906;28;20026;-77
2021/12/03 08:20:06;;;;;;;5.43;4.70;;;8.30;77.20;;;;;;5006338;28;20124;-76
2021/12/03 08:22:32;;;;;;;6.97;5.43;;;8.40;77.40;;;;;;5006335;28;20034;-80
2021/12/03 08:24:58;;;;;;;6.65;5.22;;;8.30;77.10;;;;;;5015337;28;20069;-82
2021/12/03 08:27:24;;;;;;;7.85;5.80;;;8.40;77.30;;;;;;5024962;28;20119;-78
2021/12/03 08:29:50;;;;;;;6.95;5.80;;;8.40;77.30;;;;;;5007358;28;20548;-78
2021/12/03 08:32:17;;;;;;;6.47;5.70;;;8.40;77.30;;;;;;5006315;28;20060;-74
2021/12/03 08:34:43;;;;;;;6.85;5.97;;;8.40;77.30;;;;;;5007206;28;20037;-88
2021/12/03 08:37:09;;;;;;;9.25;6.93;;;8.50;77.50;;;;;;5008624;28;20044;-72
2021/12/03 08:39:36;;;;;;;9.00;6.72;;;8.40;77.30;;;;;;5025726;28;20437;-78
2021/12/03 08:42:08;;;;;;;7.55;6.13;;;8.50;77.40;;;;;;5028689;28;20030;-83
2021/12/03 08:44:34;;;;;;;7.03;6.30;;;8.50;77.40;;;;;;5026272;28;20033;-77
2021/12/03 08:47:03;;;;;;;10.40;7.47;;;8.50;77.30;;;;;;5009368;28;20053;-83
2021/12/03 08:49:32;;;;;;;8.45;6.75;;;8.50;77.30;;;;;;5024038;28;20025;-74
2021/12/03 08:57:09;;;;;;;9.77;7.75;;;8.60;77.30;;;;;;5027027;28;20037;-74
2021/12/03 08:59:35;;;;;;;9.75;7.88;;;8.70;77.60;;;;;;5043258;28;20030;-73
2021/12/03 09:02:01;;;;;;;9.98;7.78;;;8.70;77.60;;;;;;5031931;28;20702;-75
2021/12/03 09:04:28;;;;;;;12.00;8.50;;;8.80;77.80;;;;;;5032503;28;20041;-72
2021/12/03 09:06:55;;;;;;;9.18;8.02;;;8.80;77.80;;;;;;5030355;28;20029;-73
2021/12/03 09:09:21;;;;;;;9.25;7.45;;;8.80;77.70;;;;;;5029338;28;20026;-72
2021/12/03 09:11:46;;;;;;;8.95;8.05;;;8.80;77.70;;;;;;5031500;28;20032;-72
2021/12/03 09:14:35;;;;;;;9.45;8.25;;;8.90;77.90;;;;;;5028748;28;20057;-76
2021/12/03 09:25:15;;;;;;;12.20;9.30;;;9.00;77.90;;;;;;5004966;28;20493;-73
2021/12/03 09:27:41;;;;;;;11.63;9.20;;;9.00;77.90;;;;;;5009235;28;20311;-76
2021/12/03 09:30:10;;;;;;;13.27;10.70;;;9.10;78.00;;;;;;5009775;28;20117;-73
2021/12/03 09:32:36;;;;;;;11.82;10.35;;;9.10;78.00;;;;;;5008849;28;20054;-77
2021/12/03 09:35:03;;;;;;;11.60;9.68;;;9.20;78.10;;;;;;5009342;28;20058;-73
2021/12/03 09:37:29;;;;;;;13.82;10.02;;;9.20;78.00;;;;;;5008197;28;20055;-73
2021/12/03 09:40:01;;;;;;;12.15;9.75;;;9.20;78.00;;;;;;5008774;28;20619;-74
2021/12/03 09:42:28;;;;;;;12.63;11.00;;;9.30;78.10;;;;;;5008530;28;20033;-76
2021/12/03 09:44:54;;;;;;;14.55;10.93;;;9.30;78.00;;;;;;5007529;28;20479;-74
2021/12/03 09:47:20;;;;;;;14.20;10.98;;;9.40;78.20;;;;;;5009283;28;20366;-73
2021/12/03 09:49:53;;;;;;;14.85;10.70;;;9.40;78.10;;;;;;5007432;28;20034;-74
2021/12/03 09:52:34;;;;;;;13.80;10.52;;;9.40;78.00;;;;;;4991144;28;20037;-73
2021/12/03 09:55:18;;;;;;;15.00;11.68;;;9.40;78.00;;;;;;5008123;28;20038;-73
2021/12/03 10:00:35;;;;;;;14.98;11.95;;;9.50;78.10;;;;;;4987609;28;20137;-74
2021/12/03 10:03:16;;;;;;;16.85;12.85;;;9.60;78.30;;;;;;5012856;28;20030;-74
2021/12/03 10:30:17;;;;;;;19.20;12.80;;;10.00;78.10;;;;;;5026834;28;20036;-73
2021/12/03 10:33:08;;;;;;;18.70;12.40;;;10.10;78.30;;;;;;5026269;28;20573;-74
2021/12/03 10:41:15;;;;;;;20.33;13.80;;;10.30;78.40;;;;;;5025857;28;20068;-73
2021/12/03 10:46:53;;;;;;;21.05;14.70;;;10.50;78.50;;;;;;5027675;28;20029;-74
2021/12/03 10:51:57;;;;;;;19.80;13.70;;;10.60;78.50;;;;;;5011158;28;20069;-89
2021/12/03 12:00:07;;;;;;;15.40;11.25;;;11.70;78.30;;;;;;5041549;28;20033;-73
2021/12/03 12:45:14;;;;;;;8.75;7.00;;;12.20;78.40;;;;;;5017635;28;20324;-73
2021/12/03 12:49:16;;;;;;;10.45;8.05;;;12.20;78.40;;;;;;5033961;28;20040;-90
2021/12/03 12:59:53;;;;;;;10.60;7.45;;;12.20;78.30;;;;;;5023639;28;20049;-73
2021/12/03 13:06:43;;;;;;;11.50;8.77;;;12.20;78.30;;;;;;4967890;28;20031;-74
2021/12/03 13:24:57;;;;;;;9.60;7.50;;;12.20;78.20;;;;;;5045051;28;20124;-88
2021/12/03 13:31:12;;;;;;;8.63;6.70;;;12.20;78.10;;;;;;5028254;28;20029;-73
2021/12/03 14:08:51;;;;;;;8.05;6.57;;;12.20;78.00;;;;;;5029548;28;20049;-86
2021/12/03 14:19:36;;;;;;;8.02;6.88;;;12.10;77.90;;;;;;5008874;28;20046;-81
2021/12/03 14:50:58;;;;;;;9.65;7.18;;;11.90;77.90;;;;;;5008490;28;20026;-75
2021/12/03 14:55:44;;;;;;;8.30;6.25;;;11.80;77.90;;;;;;5029226;28;20064;-92
2021/12/03 14:58:14;;;;;;;7.45;6.28;;;11.80;78.00;;;;;;5030248;28;20473;-76
2021/12/03 15:03:42;;;;;;;7.53;6.65;;;11.80;78.10;;;;;;5025742;28;20028;-80
2021/12/03 15:19:47;;;;;;;7.13;5.78;;;11.70;78.10;;;;;;5012719;28;20547;-72
2021/12/03 15:22:31;;;;;;;6.45;4.90;;;11.70;78.20;;;;;;5007269;28;20120;-74
2021/12/03 16:04:52;;;;;;;6.30;4.72;;;11.30;78.50;;;;;;5010199;28;20498;-82
2021/12/03 16:07:55;;;;;;;7.00;4.65;;;11.20;78.40;;;;;;5022992;28;20465;-80
2021/12/03 16:10:20;;;;;;;6.13;4.70;;;11.20;78.40;;;;;;5006899;28;20041;-85
2021/12/03 16:13:10;;;;;;;7.00;4.75;;;11.20;78.50;;;;;;5011341;28;20499;-78
2021/12/03 16:18:50;;;;;;;6.45;4.50;;;11.20;78.60;;;;;;5021143;28;20026;-76
2021/12/03 16:27:23;;;;;;;5.82;4.43;;;11.10;78.70;;;;;;5007380;28;20045;-79
2021/12/03 16:56:52;;;;;;;5.68;3.95;;;10.90;78.90;;;;;;4996236;28;20561;-78
2021/12/03 16:59:18;;;;;;;6.65;4.50;;;10.80;78.80;;;;;;5026379;28;20072;-80
2021/12/03 17:07:40;;;;;;;5.05;4.13;;;10.80;79.00;;;;;;5008478;28;20441;-84
2021/12/03 17:12:59;;;;;;;7.03;4.55;;;10.80;79.10;;;;;;5006439;28;20146;-80
2021/12/03 17:48:28;;;;;;;4.63;4.15;;;10.60;79.70;;;;;;5011210;28;20122;-82
2021/12/03 17:53:50;;;;;;;6.90;4.43;;;10.60;79.80;;;;;;5020564;28;20029;-73
2021/12/03 17:56:18;;;;;;;6.07;4.53;;;10.60;79.90;;;;;;5008768;28;20034;-73
2021/12/03 17:58:49;;;;;;;7.38;5.50;;;10.60;79.90;;;;;;5011746;28;20025;-72
2021/12/03 18:01:25;;;;;;;5.85;4.45;;;10.60;80.00;;;;;;5022705;28;20498;-72
2021/12/03 18:09:25;;;;;;;8.10;5.15;;;10.50;80.00;;;;;;5021707;28;20361;-73
2021/12/03 18:57:02;;;;;;;6.90;5.93;;;10.50;81.70;;;;;;5007528;28;20311;-80
2021/12/03 18:59:28;;;;;;;8.10;6.57;;;10.60;81.90;;;;;;5017198;28;20045;-77
2021/12/03 19:01:54;;;;;;;8.70;5.53;;;10.50;81.80;;;;;;5008271;28;20072;-83
2021/12/03 19:04:31;;;;;;;7.40;5.82;;;10.50;81.80;;;;;;5007645;28;20481;-80
2021/12/03 19:07:04;;;;;;;10.82;7.32;;;10.50;81.80;;;;;;5022727;28;20034;-84
2021/12/03 19:09:38;;;;;;;7.03;6.18;;;10.50;81.80;;;;;;5002476;28;20026;-86
2021/12/03 19:12:09;;;;;;;9.25;6.25;;;10.40;81.70;;;;;;5026483;28;20029;-84
2021/12/03 19:14:42;;;;;;;9.38;6.15;;;10.50;81.90;;;;;;5021825;28;20477;-82
2021/12/03 19:17:09;;;;;;;;;;;10.40;81.70;;;;;;5021843;28;20492;-84
2021/12/03 19:19:41;;;;;;;9.07;6.28;;;10.40;81.70;;;;;;5020615;28;19921;-83
2021/12/03 19:22:07;;;;;;;10.32;6.43;;;10.40;81.60;;;;;;5006665;28;20025;-88
2021/12/03 19:24:34;;;;;;;7.75;6.20;;;10.40;81.60;;;;;;5009940;28;20073;-82
2021/12/03 19:27:00;;;;;;;9.80;7.10;;;10.40;81.60;;;;;;5009335;28;20044;-80
2021/12/03 19:29:26;;;;;;;8.80;7.00;;;10.30;81.40;;;;;;5019885;28;20117;-79
2021/12/03 19:31:53;;;;;;;9.38;6.10;;;10.30;81.50;;;;;;5026707;28;20048;-78
2021/12/03 19:34:20;;;;;;;9.02;6.47;;;10.30;81.50;;;;;;5026575;28;20084;-75
2021/12/03 19:36:47;;;;;;;7.35;6.20;;;10.30;81.50;;;;;;5024324;28;20057;-81
2021/12/03 19:39:16;;;;;;;10.80;6.75;;;10.20;81.20;;;;;;5009229;28;20032;-77
2021/12/03 19:44:43;;;;;;;8.45;6.32;;;10.20;81.20;;;;;;5010183;28;20371;-76
2021/12/03 19:47:12;;;;;;;8.32;6.93;;;10.10;81.10;;;;;;5034345;28;20029;-77
2021/12/03 19:52:10;;;;;;;9.43;6.95;;;10.10;81.00;;;;;;5013073;28;20657;-91
2021/12/03 19:54:36;;;;;;;9.25;6.43;;;10.00;80.90;;;;;;5043890;28;20065;-86
2021/12/03 19:57:02;;;;;;;8.52;6.90;;;10.00;80.80;;;;;;5008795;28;20034;-81
2021/12/03 19:59:28;;;;;;;8.73;6.60;;;10.00;80.90;;;;;;5008571;28;20056;-81
2021/12/03 20:01:56;;;;;;;9.25;6.88;;;9.90;80.70;;;;;;5013705;28;20030;-82
2021/12/03 20:04:22;;;;;;;9.38;6.40;;;9.90;80.70;;;;;;5039534;28;20068;-75
2021/12/03 20:06:48;;;;;;;8.77;6.95;;;9.80;80.50;;;;;;5044353;28;20025;-82
2021/12/03 20:09:30;;;;;;;7.95;6.65;;;9.80;80.50;;;;;;5028792;28;20443;-79
2021/12/03 20:12:04;;;;;;;8.38;6.00;;;9.70;80.30;;;;;;5027689;28;20051;-88
2021/12/03 20:14:31;;;;;;;7.03;6.22;;;9.70;80.30;;;;;;5028848;28;20037;-75
2021/12/03 20:17:14;;;;;;;7.68;6.38;;;9.60;80.10;;;;;;5028076;28;20045;-77
2021/12/03 20:19:41;;;;;;;7.30;6.18;;;9.60;80.10;;;;;;5028040;28;20496;-82
2021/12/03 20:22:12;;;;;;;8.38;6.40;;;9.60;80.10;;;;;;5027792;28;20037;-75
2021/12/03 20:27:17;;;;;;;7.30;6.50;;;9.40;79.80;;;;;;5028188;28;20033;-79
2021/12/03 20:30:23;;;;;;;7.85;6.65;;;9.40;79.80;;;;;;5027756;28;20030;-78
2021/12/03 20:32:37;;;;;;;9.18;6.07;;;9.40;79.80;;;;;;5025540;28;20044;-80
2021/12/03 20:37:39;;;;;;;8.50;6.45;;;9.30;79.60;;;;;;5029333;28;20040;-85
2021/12/03 20:40:17;;;;;;;;;;;9.30;79.60;;;;;;5029837;28;20033;-74
2021/12/03 21:09:50;;;;;;;12.57;8.13;;;8.80;78.90;;;;;;5028852;28;20595;-81